Terminal Aerodrome Forecast
Issued by NWS

Home | Current Version | Previous Version | Text Only | Print | Product List | Glossary On
Versions: 1 2 3 4 5 6 7 8 9 10 11 12
490
FTUS43 KSGF 270520
TAFJLN
TAF
KJLN 270520Z 2706/2806 19009KT P6SM VCSH SCT100 BKN200
      WS020/21035KT
     FM270800 21008KT P6SM VCTS BKN070CB OVC140
      TEMPO 2709/2713 6SM -TSRA SCT030 OVC050CB
     FM271600 23012G20KT P6SM SCT050 BKN140=

USA.gov is the U.S. government's official web portal to all federal, state and local government web resources and services.